createdAt,value
2019-02-01T00:01:52.451Z,23.60
2019-02-01T00:04:20.391Z,23.57
2019-02-01T00:06:48.201Z,23.63
2019-02-01T00:09:16.029Z,23.13
2019-02-01T00:11:43.963Z,24.13
2019-02-01T00:14:11.789Z,21.23
2019-02-01T00:16:39.697Z,23.37
2019-02-01T00:19:07.615Z,22.73
2019-02-01T00:21:35.470Z,22.47
2019-02-01T00:24:04.195Z,23.57
2019-02-01T00:26:32.154Z,22.37
2019-02-01T00:29:00.020Z,23.10
2019-02-01T00:31:27.923Z,21.10
2019-02-01T00:33:55.778Z,22.67
2019-02-01T00:36:26.098Z,21.10
2019-02-01T00:38:53.611Z,20.77
2019-02-01T00:41:21.546Z,22.10
2019-02-01T00:43:49.814Z,21.90
2019-02-01T00:46:17.634Z,21.63
2019-02-01T00:48:45.592Z,21.17
2019-02-01T00:51:13.490Z,21.50
2019-02-01T00:53:41.340Z,20.70
2019-02-01T00:56:09.301Z,20.30
2019-02-01T00:58:37.138Z,22.30
2019-02-01T01:01:05.494Z,20.83
2019-02-01T01:03:33.447Z,21.13
2019-02-01T01:06:01.230Z,21.77
2019-02-01T01:08:29.171Z,20.30
2019-02-01T01:10:57.146Z,20.20
2019-02-01T01:13:27.658Z,21.00
2019-02-01T01:15:55.456Z,21.20
2019-02-01T01:18:24.371Z,20.93
2019-02-01T01:20:52.372Z,21.43
2019-02-01T01:23:20.341Z,20.10
2019-02-01T01:25:48.358Z,19.10
2019-02-01T01:28:16.396Z,19.93
2019-02-01T01:30:44.683Z,19.53
2019-02-01T01:33:13.817Z,17.77
2019-02-01T01:35:42.243Z,18.53
2019-02-01T01:38:10.681Z,19.17
2019-02-01T01:40:38.991Z,19.50
2019-02-01T01:43:07.734Z,19.30
2019-02-01T01:45:36.219Z,19.20
2019-02-01T01:48:05.705Z,19.40
2019-02-01T01:50:33.849Z,19.57
2019-02-01T01:53:02.366Z,19.30
2019-02-01T01:55:30.557Z,18.70
2019-02-01T01:57:58.726Z,19.33
2019-02-01T02:00:31.660Z,18.60
2019-02-01T02:02:59.763Z,19.60
2019-02-01T02:05:28.624Z,20.50
2019-02-01T02:07:57.882Z,18.63
2019-02-01T02:10:28.917Z,18.73
2019-02-01T02:12:57.500Z,20.13
2019-02-01T02:15:25.940Z,20.20
2019-02-01T02:17:55.229Z,19.27
2019-02-01T02:20:25.772Z,19.50
2019-02-01T02:22:54.491Z,18.30
2019-02-01T02:25:23.742Z,20.83
2019-02-01T02:27:52.102Z,20.27
2019-02-01T02:30:22.930Z,20.37
2019-02-01T02:32:51.085Z,19.23
2019-02-01T02:35:18.981Z,21.53
2019-02-01T02:37:46.975Z,19.73
2019-02-01T02:40:18.251Z,22.00
2019-02-01T02:42:46.502Z,21.40
2019-02-01T02:45:15.191Z,22.90
2019-02-01T02:47:43.334Z,22.17
2019-02-01T02:50:15.375Z,23.20
2019-02-01T02:52:43.414Z,24.40
2019-02-01T02:55:13.499Z,23.07
2019-02-01T02:57:41.593Z,25.77
2019-02-01T03:00:22.572Z,26.10
2019-02-01T03:02:50.920Z,26.33
2019-02-01T03:05:19.890Z,28.20
2019-02-01T03:07:48.273Z,29.73
2019-02-01T03:10:16.303Z,30.50
2019-02-01T03:12:44.327Z,29.23
2019-02-01T03:15:15.324Z,30.37
2019-02-01T03:17:43.471Z,30.03
2019-02-01T03:20:15.477Z,30.97
2019-02-01T03:22:43.485Z,32.53
2019-02-01T03:25:11.651Z,30.67
2019-02-01T03:27:39.866Z,31.90
2019-02-01T03:30:13.088Z,33.20
2019-02-01T03:32:41.303Z,34.37
2019-02-01T03:35:09.445Z,34.33
2019-02-01T03:37:37.374Z,32.37
2019-02-01T03:40:05.751Z,35.20
2019-02-01T03:42:33.792Z,35.30
2019-02-01T03:45:01.953Z,36.77
2019-02-01T03:47:30.007Z,37.47
2019-02-01T03:49:57.902Z,38.60
2019-02-01T03:52:25.707Z,39.20
2019-02-01T03:54:53.482Z,39.00
2019-02-01T03:57:21.400Z,37.50
2019-02-01T03:59:49.174Z,37.73
2019-02-01T04:02:17.125Z,40.40
2019-02-01T04:04:44.985Z,41.47
2019-02-01T04:07:12.773Z,38.83
2019-02-01T04:09:40.727Z,39.70
2019-02-01T04:12:08.516Z,38.87
2019-02-01T04:14:36.302Z,42.40
2019-02-01T04:17:04.439Z,39.03
2019-02-01T04:19:42.699Z,41.73
2019-02-01T04:22:03.039Z,40.43
2019-02-01T04:24:30.985Z,42.43
2019-02-01T04:26:58.790Z,41.47
2019-02-01T04:29:26.727Z,41.60
2019-02-01T04:31:54.645Z,40.97
2019-02-01T04:34:22.594Z,41.53
2019-02-01T04:36:50.415Z,41.17
2019-02-01T04:39:18.349Z,41.70
2019-02-01T04:41:46.177Z,42.37
2019-02-01T04:44:13.976Z,41.87
2019-02-01T04:46:41.908Z,43.20
2019-02-01T04:49:09.831Z,42.23
2019-02-01T04:51:37.750Z,45.30
2019-02-01T04:54:05.655Z,45.00
2019-02-01T04:56:33.465Z,44.70
2019-02-01T04:59:01.431Z,45.27
2019-02-01T05:01:29.287Z,44.97
2019-02-01T05:03:57.314Z,46.20
2019-02-01T05:06:25.147Z,45.20
2019-02-01T05:08:52.928Z,47.27
2019-02-01T05:11:21.034Z,45.57
2019-02-01T05:13:49.057Z,46.40
2019-02-01T05:16:16.991Z,44.50
2019-02-01T05:18:44.845Z,44.03
2019-02-01T05:21:12.711Z,42.90
2019-02-01T05:23:43.798Z,44.93
2019-02-01T05:26:11.662Z,45.33
2019-02-01T05:28:39.594Z,44.90
2019-02-01T05:31:07.562Z,45.27
2019-02-01T05:33:35.386Z,48.17
2019-02-01T05:36:03.838Z,47.23
2019-02-01T05:38:31.726Z,49.27
2019-02-01T05:40:59.531Z,47.70
2019-02-01T05:43:27.448Z,48.10
2019-02-01T05:45:55.298Z,48.20
2019-02-01T05:48:23.479Z,48.70
2019-02-01T05:50:51.359Z,50.13
2019-02-01T05:53:19.324Z,46.60
2019-02-01T05:55:47.143Z,50.23
2019-02-01T05:58:15.081Z,51.20
2019-02-01T06:00:43.512Z,48.47
2019-02-01T06:03:11.921Z,49.00
2019-02-01T06:05:40.359Z,48.33
2019-02-01T06:08:08.296Z,47.00
2019-02-01T06:10:37.659Z,49.30
2019-02-01T06:13:05.499Z,49.90
2019-02-01T06:15:33.821Z,50.00
2019-02-01T06:18:04.037Z,51.50
2019-02-01T06:20:40.258Z,50.83
2019-02-01T06:23:04.288Z,50.03
2019-02-01T06:25:32.907Z,51.37
2019-02-01T06:28:01.736Z,51.10
2019-02-01T06:30:30.204Z,52.20
2019-02-01T06:32:58.488Z,51.23
2019-02-01T06:35:26.555Z,55.00
2019-02-01T06:37:54.813Z,52.63
2019-02-01T06:40:31.928Z,53.20
2019-02-01T06:43:00.534Z,53.80
2019-02-01T06:45:28.523Z,54.07
2019-02-01T06:47:57.028Z,55.47
2019-02-01T06:50:36.966Z,51.63
2019-02-01T06:53:05.404Z,53.60
2019-02-01T06:55:33.280Z,54.70
2019-02-01T06:58:02.193Z,54.13
2019-02-01T07:00:34.476Z,55.57
2019-02-01T07:03:04.914Z,54.77
2019-02-01T07:05:35.326Z,54.63
2019-02-01T07:08:15.669Z,54.83
2019-02-01T07:11:01.995Z,54.57
2019-02-01T07:13:49.819Z,52.07
2019-02-01T07:16:36.292Z,54.77
2019-02-01T07:19:27.660Z,52.13
2019-02-01T07:22:08.475Z,56.60
2019-02-01T07:24:46.250Z,55.57
2019-02-01T07:27:24.334Z,55.60
2019-02-01T07:30:01.245Z,57.27
2019-02-01T07:32:51.344Z,57.40
2019-02-01T07:35:20.174Z,56.83
2019-02-01T07:37:48.801Z,60.23
2019-02-01T07:40:19.585Z,57.37
2019-02-01T07:42:47.560Z,57.83
2019-02-01T07:45:23.958Z,58.10
2019-02-01T07:47:51.831Z,57.37
2019-02-01T07:50:24.131Z,56.90
2019-02-01T07:52:51.710Z,56.20
2019-02-01T07:55:19.787Z,58.33
2019-02-01T07:57:51.710Z,57.20
2019-02-01T08:00:20.738Z,58.67
2019-02-01T08:02:49.884Z,57.87
2019-02-01T08:05:19.725Z,56.47
2019-02-01T08:07:48.891Z,58.37
2019-02-01T08:10:16.762Z,57.10
2019-02-01T08:12:44.760Z,59.17
2019-02-01T08:15:18.308Z,57.57
2019-02-01T08:17:46.420Z,57.30
2019-02-01T08:20:14.391Z,59.37
2019-02-01T08:22:43.389Z,58.27
2019-02-01T08:25:11.791Z,59.63
2019-02-01T08:27:39.815Z,57.03
2019-02-01T08:30:14.092Z,59.13
2019-02-01T08:32:43.214Z,60.07
2019-02-01T08:35:13.071Z,56.60
2019-02-01T08:37:41.873Z,57.00
2019-02-01T08:40:12.293Z,55.07
2019-02-01T08:42:40.643Z,58.47
2019-02-01T08:45:12.117Z,58.57
2019-02-01T08:47:41.221Z,56.07
2019-02-01T08:50:12.327Z,55.57
2019-02-01T08:52:40.649Z,58.13
2019-02-01T08:55:09.773Z,53.43
2019-02-01T08:57:37.729Z,54.50
2019-02-01T09:00:14.714Z,54.07
2019-02-01T09:02:44.834Z,54.10
2019-02-01T09:05:12.654Z,55.30
2019-02-01T09:07:40.937Z,55.33
2019-02-01T09:10:09.969Z,54.87
2019-02-01T09:12:37.804Z,53.57
2019-02-01T09:15:08.112Z,52.87
2019-02-01T09:17:36.038Z,53.20
2019-02-01T09:20:06.024Z,52.90
2019-02-01T09:22:33.874Z,53.70
2019-02-01T09:25:01.973Z,51.47
2019-02-01T09:27:29.924Z,51.13
2019-02-01T09:30:00.327Z,51.97
2019-02-01T09:32:28.881Z,50.77
2019-02-01T09:34:57.148Z,51.13
2019-02-01T09:37:26.338Z,49.10
2019-02-01T09:39:55.788Z,49.93
2019-02-01T09:42:24.778Z,50.27
2019-02-01T09:44:54.513Z,52.13
2019-02-01T09:47:26.607Z,53.43
2019-02-01T09:49:56.916Z,51.37
2019-02-01T09:52:25.657Z,51.20
2019-02-01T09:54:53.676Z,50.30
2019-02-01T09:57:22.329Z,52.67
2019-02-01T09:59:52.735Z,50.70
2019-02-01T10:02:21.894Z,50.73
2019-02-01T10:04:50.241Z,55.33
2019-02-01T10:07:18.263Z,49.60
2019-02-01T10:09:48.997Z,51.67
2019-02-01T10:12:17.053Z,52.27
2019-02-01T10:14:44.979Z,51.27
2019-02-01T10:17:13.384Z,52.20
2019-02-01T10:19:41.458Z,51.00
2019-02-01T10:22:13.789Z,52.70
2019-02-01T10:24:40.120Z,54.40
2019-02-01T10:27:08.101Z,50.50
2019-02-01T10:29:36.142Z,51.30
2019-02-01T10:32:04.767Z,50.27
2019-02-01T10:34:33.101Z,49.80
2019-02-01T10:37:02.159Z,50.50
2019-02-01T10:39:30.206Z,49.07
2019-02-01T10:42:03.702Z,48.67
2019-02-01T10:44:28.639Z,50.87
2019-02-01T10:47:03.936Z,49.07
2019-02-01T10:49:27.099Z,48.40
2019-02-01T10:51:55.384Z,48.20
2019-02-01T10:54:23.410Z,48.27
2019-02-01T10:56:51.400Z,47.40
2019-02-01T10:59:20.561Z,49.47
2019-02-01T11:01:48.592Z,47.83
2019-02-01T11:04:17.503Z,47.17
2019-02-01T11:06:45.422Z,46.73
2019-02-01T11:09:13.962Z,47.43
2019-02-01T11:11:42.049Z,46.67
2019-02-01T11:14:10.385Z,45.63
2019-02-01T11:16:40.992Z,45.27
2019-02-01T11:19:08.991Z,46.47
2019-02-01T11:21:36.807Z,46.63
2019-02-01T11:24:15.086Z,45.30
2019-02-01T11:26:34.726Z,44.80
2019-02-01T11:29:02.777Z,47.13
2019-02-01T11:31:33.913Z,44.33
2019-02-01T11:34:04.079Z,43.17
2019-02-01T11:36:33.455Z,43.40
2019-02-01T11:39:04.439Z,43.30
2019-02-01T11:41:33.635Z,43.73
2019-02-01T11:44:01.696Z,43.33
2019-02-01T11:46:31.319Z,42.47
2019-02-01T11:48:59.396Z,42.90
2019-02-01T11:51:27.650Z,43.40
2019-02-01T11:53:55.513Z,40.37
2019-02-01T11:56:25.627Z,41.23
2019-02-01T11:58:53.883Z,42.07
2019-02-01T12:01:21.881Z,40.30
2019-02-01T12:03:49.858Z,42.47
2019-02-01T12:06:23.516Z,43.07
2019-02-01T12:08:53.669Z,42.00
2019-02-01T12:11:21.718Z,40.30
2019-02-01T12:13:49.784Z,41.77
2019-02-01T12:16:18.337Z,39.63
2019-02-01T12:19:07.301Z,38.60
2019-02-01T12:21:57.963Z,40.93
2019-02-01T12:24:34.493Z,39.60
2019-02-01T12:27:10.776Z,40.00
2019-02-01T12:29:48.895Z,41.30
2019-02-01T12:32:34.970Z,38.70
2019-02-01T12:35:10.718Z,39.00
2019-02-01T12:37:57.871Z,37.50
2019-02-01T12:40:32.927Z,37.50
2019-02-01T12:43:04.172Z,35.83
2019-02-01T12:45:39.490Z,35.30
2019-02-01T12:48:21.792Z,35.20
2019-02-01T12:51:00.856Z,34.80
2019-02-01T12:53:39.416Z,32.43
2019-02-01T12:56:08.728Z,33.00
2019-02-01T12:58:37.514Z,33.20
2019-02-01T13:01:09.105Z,33.70
2019-02-01T13:03:37.671Z,33.20
2019-02-01T13:06:08.878Z,33.00
2019-02-01T13:08:39.366Z,35.17
2019-02-01T13:11:08.891Z,31.03
2019-02-01T13:13:37.836Z,35.43
2019-02-01T13:16:08.009Z,32.87
2019-02-01T13:18:38.685Z,32.53
2019-02-01T13:21:08.496Z,33.10
2019-02-01T13:23:39.128Z,33.53
2019-02-01T13:26:07.183Z,31.80
2019-02-01T13:28:35.487Z,31.57
2019-02-01T13:31:05.077Z,31.87
2019-02-01T13:33:34.238Z,31.70
2019-02-01T13:36:02.533Z,31.73
2019-02-01T13:38:32.715Z,32.00
2019-02-01T13:41:01.887Z,31.07
2019-02-01T13:43:29.931Z,29.17
2019-02-01T13:46:01.172Z,30.17
2019-02-01T13:48:30.647Z,29.13
2019-02-01T13:50:58.688Z,30.70
2019-02-01T13:53:34.706Z,31.13
2019-02-01T13:56:01.239Z,31.40
2019-02-01T13:58:30.578Z,30.70
2019-02-01T14:00:59.653Z,31.17
2019-02-01T14:03:28.222Z,29.87
2019-02-01T14:05:56.804Z,31.30
2019-02-01T14:08:27.518Z,30.10
2019-02-01T14:10:59.543Z,30.47
2019-02-01T14:13:28.432Z,29.20
2019-02-01T14:15:57.021Z,28.33
2019-02-01T14:18:24.889Z,30.87
2019-02-01T14:20:56.225Z,31.00
2019-02-01T14:23:48.985Z,30.80
2019-02-01T14:26:17.566Z,28.40
2019-02-01T14:28:46.115Z,29.47
2019-02-01T14:31:15.705Z,31.03
2019-02-01T14:33:45.128Z,30.80
2019-02-01T14:36:14.338Z,30.20
2019-02-01T14:38:53.518Z,27.67
2019-02-01T14:41:23.531Z,28.37
2019-02-01T14:43:53.205Z,28.60
2019-02-01T14:46:23.882Z,29.53
2019-02-01T14:48:52.041Z,27.50
2019-02-01T14:51:21.151Z,28.00
2019-02-01T14:53:58.557Z,28.50
2019-02-01T14:56:24.033Z,28.60
2019-02-01T14:58:51.872Z,29.30
2019-02-01T15:01:21.781Z,29.90
2019-02-01T15:03:52.393Z,29.57
2019-02-01T15:06:21.220Z,30.60
2019-02-01T15:08:50.533Z,29.33
2019-02-01T15:11:20.115Z,29.60
2019-02-01T15:13:48.124Z,31.20
2019-02-01T15:16:31.284Z,29.97
2019-02-01T15:18:47.620Z,28.17
2019-02-01T15:21:16.000Z,28.13
2019-02-01T15:23:48.582Z,29.50
2019-02-01T15:26:18.848Z,28.60
2019-02-01T15:28:46.960Z,27.77
2019-02-01T15:31:17.124Z,30.20
2019-02-01T15:33:50.621Z,28.97
2019-02-01T15:36:19.475Z,29.13
2019-02-01T15:38:47.897Z,29.20
2019-02-01T15:41:17.420Z,27.93
2019-02-01T15:43:47.322Z,28.17
2019-02-01T15:46:17.646Z,27.47
2019-02-01T15:48:45.996Z,30.33
2019-02-01T15:51:14.013Z,30.57
2019-02-01T15:53:44.439Z,29.13
2019-02-01T15:56:13.557Z,28.07
2019-02-01T15:58:46.984Z,28.83
2019-02-01T16:01:17.510Z,28.97
2019-02-01T16:03:49.198Z,28.80
2019-02-01T16:06:17.896Z,29.03
2019-02-01T16:08:48.110Z,31.47
2019-02-01T16:11:20.017Z,29.50
2019-02-01T16:13:48.878Z,29.87
2019-02-01T16:16:17.272Z,30.80
2019-02-01T16:18:45.657Z,29.27
2019-02-01T16:21:16.777Z,29.97
2019-02-01T16:23:44.845Z,29.87
2019-02-01T16:26:14.235Z,30.63
2019-02-01T16:28:46.179Z,29.03
2019-02-01T16:31:17.451Z,29.80
2019-02-01T16:33:48.242Z,30.70
2019-02-01T16:36:15.980Z,28.80
2019-02-01T16:38:45.323Z,29.30
2019-02-01T16:41:14.345Z,32.80
2019-02-01T16:43:44.198Z,29.60
2019-02-01T16:46:12.918Z,30.40
2019-02-01T16:48:41.460Z,31.40
2019-02-01T16:51:11.391Z,31.40
2019-02-01T16:53:40.566Z,29.87
2019-02-01T16:56:08.843Z,31.07
2019-02-01T16:58:37.329Z,29.60
2019-02-01T17:01:07.609Z,29.70
2019-02-01T17:03:35.856Z,33.47
2019-02-01T17:06:05.266Z,32.10
2019-02-01T17:08:33.231Z,31.47
2019-02-01T17:11:03.513Z,34.07
2019-02-01T17:13:31.580Z,32.20
2019-02-01T17:16:00.960Z,32.33
2019-02-01T17:18:29.457Z,31.33
2019-02-01T17:20:57.954Z,34.43
2019-02-01T17:23:26.503Z,33.70
2019-02-01T17:25:56.650Z,33.37
2019-02-01T17:28:24.983Z,32.00
2019-02-01T17:30:53.249Z,32.97
2019-02-01T17:33:21.318Z,32.60
2019-02-01T17:35:49.650Z,32.00
2019-02-01T17:38:17.958Z,31.53
2019-02-01T17:40:47.605Z,33.00
2019-02-01T17:43:15.921Z,32.53
2019-02-01T17:45:44.253Z,31.27
2019-02-01T17:48:12.925Z,34.73
2019-02-01T17:50:43.783Z,34.80
2019-02-01T17:53:13.044Z,33.93
2019-02-01T17:55:41.664Z,34.23
2019-02-01T17:58:10.077Z,33.20
2019-02-01T18:01:07.108Z,32.47
2019-02-01T18:03:38.307Z,30.93
2019-02-01T18:06:06.861Z,33.50
2019-02-01T18:08:35.035Z,33.53
2019-02-01T18:11:03.825Z,33.17
2019-02-01T18:13:34.327Z,35.17
2019-02-01T18:16:04.334Z,34.00
2019-02-01T18:18:37.357Z,35.60
2019-02-01T18:21:06.620Z,33.47
2019-02-01T18:23:34.591Z,33.07
2019-02-01T18:26:03.351Z,36.07
2019-02-01T18:28:31.589Z,33.90
2019-02-01T18:31:00.076Z,35.20
2019-02-01T18:33:28.468Z,37.23
2019-02-01T18:35:56.471Z,37.50
2019-02-01T18:38:24.735Z,36.87
2019-02-01T18:40:52.849Z,35.97
2019-02-01T18:43:20.752Z,36.50
2019-02-01T18:45:48.873Z,35.20
2019-02-01T18:48:18.215Z,35.23
2019-02-01T18:50:47.062Z,36.50
2019-02-01T18:53:15.157Z,38.80
2019-02-01T18:55:43.057Z,36.07
2019-02-01T18:58:11.977Z,38.93
2019-02-01T19:00:51.590Z,36.33
2019-02-01T19:03:10.652Z,37.20
2019-02-01T19:05:40.796Z,37.50
2019-02-01T19:08:10.212Z,34.60
2019-02-01T19:10:44.853Z,35.27
2019-02-01T19:13:13.945Z,36.63
2019-02-01T19:15:41.842Z,38.50
2019-02-01T19:18:10.168Z,38.70
2019-02-01T19:20:38.126Z,38.50
2019-02-01T19:23:06.190Z,42.30
2019-02-01T19:25:44.495Z,40.20
2019-02-01T19:28:06.129Z,41.10
2019-02-01T19:30:43.644Z,41.17
2019-02-01T19:33:11.584Z,41.30
2019-02-01T19:35:40.534Z,40.73
2019-02-01T19:38:15.071Z,40.60
2019-02-01T19:40:43.692Z,39.20
2019-02-01T19:43:11.733Z,39.00
2019-02-01T19:45:39.753Z,37.80
2019-02-01T19:48:10.007Z,37.30
2019-02-01T19:50:38.021Z,36.90
2019-02-01T19:53:06.223Z,37.60
2019-02-01T19:55:37.867Z,37.40
2019-02-01T19:58:06.351Z,37.33
2019-02-01T20:00:34.332Z,36.67
2019-02-01T20:03:02.369Z,36.37
2019-02-01T20:05:30.651Z,40.70
2019-02-01T20:07:58.749Z,38.73
2019-02-01T20:10:28.240Z,38.90
2019-02-01T20:12:56.313Z,37.33
2019-02-01T20:15:24.364Z,39.47
2019-02-01T20:17:52.232Z,35.83
2019-02-01T20:20:24.149Z,39.30
2019-02-01T20:22:55.776Z,39.10
2019-02-01T20:25:26.033Z,39.63
2019-02-01T20:27:57.433Z,41.33
2019-02-01T20:30:28.835Z,40.63
2019-02-01T20:32:57.113Z,40.17
2019-02-01T20:35:25.251Z,42.77
2019-02-01T20:37:53.177Z,41.70
2019-02-01T20:40:33.235Z,41.50
2019-02-01T20:43:01.219Z,41.27
2019-02-01T20:45:29.145Z,42.70
2019-02-01T20:47:57.204Z,42.40
2019-02-01T20:50:25.187Z,45.27
2019-02-01T20:52:53.150Z,43.90
2019-02-01T20:55:22.794Z,41.37
2019-02-01T20:57:51.062Z,39.87
2019-02-01T21:00:24.163Z,39.10
2019-02-01T21:02:54.412Z,37.97
2019-02-01T21:05:25.532Z,39.47
2019-02-01T21:07:53.490Z,38.43
2019-02-01T21:10:21.827Z,37.77
2019-02-01T21:12:49.919Z,40.00
2019-02-01T21:15:20.714Z,38.10
2019-02-01T21:17:48.753Z,40.70
2019-02-01T21:20:18.928Z,41.00
2019-02-01T21:22:46.890Z,39.93
2019-02-01T21:25:19.015Z,39.20
2019-02-01T21:27:49.426Z,41.80
2019-02-01T21:30:32.735Z,38.83
2019-02-01T21:33:00.843Z,41.00
2019-02-01T21:35:31.667Z,40.00
2019-02-01T21:38:00.105Z,39.80
2019-02-01T21:40:28.541Z,38.03
2019-02-01T21:42:56.760Z,39.10
2019-02-01T21:45:25.525Z,40.87
2019-02-01T21:47:55.986Z,38.50
2019-02-01T21:50:27.196Z,37.20
2019-02-01T21:52:55.292Z,39.37
2019-02-01T21:55:23.400Z,39.60
2019-02-01T21:57:51.388Z,42.90
2019-02-01T22:00:22.723Z,42.33
2019-02-01T22:02:50.747Z,42.87
2019-02-01T22:05:18.851Z,44.37
2019-02-01T22:07:46.935Z,41.80
2019-02-01T22:10:21.193Z,41.93
2019-02-01T22:12:49.235Z,41.57
2019-02-01T22:15:18.085Z,41.83
2019-02-01T22:17:46.118Z,41.50
2019-02-01T22:20:17.207Z,41.70
2019-02-01T22:22:45.206Z,42.50
2019-02-01T22:25:13.832Z,43.27
2019-02-01T22:27:41.957Z,40.90
2019-02-01T22:30:23.407Z,42.57
2019-02-01T22:32:51.426Z,43.13
2019-02-01T22:35:19.645Z,41.10
2019-02-01T22:37:47.773Z,40.97
2019-02-01T22:40:19.115Z,42.77
2019-02-01T22:42:47.062Z,38.37
2019-02-01T22:45:15.235Z,40.17
2019-02-01T22:47:43.170Z,40.43
2019-02-01T22:50:18.518Z,40.80
2019-02-01T22:52:46.603Z,40.23
2019-02-01T22:55:14.652Z,39.97
2019-02-01T22:57:42.649Z,40.87
2019-02-01T23:01:01.973Z,40.27
2019-02-01T23:04:02.725Z,40.10
2019-02-01T23:06:30.788Z,39.17
2019-02-01T23:08:58.928Z,41.10
2019-02-01T23:11:26.954Z,41.17
2019-02-01T23:13:55.107Z,41.20
2019-02-01T23:16:22.999Z,42.20
2019-02-01T23:18:50.980Z,41.50
2019-02-01T23:21:18.841Z,42.50
2019-02-01T23:23:46.861Z,42.33
2019-02-01T23:26:14.942Z,40.60
2019-02-01T23:28:42.809Z,40.57
2019-02-01T23:31:10.821Z,39.33
2019-02-01T23:33:38.771Z,38.90
2019-02-01T23:36:07.236Z,36.03
2019-02-01T23:38:35.239Z,39.57
2019-02-01T23:41:04.137Z,38.37
2019-02-01T23:43:32.082Z,39.27
2019-02-01T23:46:00.088Z,41.40
2019-02-01T23:48:28.247Z,38.77
2019-02-01T23:50:56.247Z,37.87
2019-02-01T23:53:24.345Z,39.80
2019-02-01T23:55:52.327Z,40.17
2019-02-01T23:58:20.488Z,38.67
